Time;durP1;ratioP1;P1;durP2;ratioP2;P2;SDS_P1;SDS_P2;PMS_P1;PMS_P2;Temp;Humidity;BMP_temperature;BMP_pressure;BME280_temperature;BME280_humidity;BME280_pressure;Samples;Min_cycle;Max_cycle;Signal;HPM_P1;HPM_P2
2022/03/06 00:00:11;;;;;;;18.52;11.75;;;;;;;3.94;57.83;100333.34;5031169;28;20056;-86
2022/03/06 00:02:37;;;;;;;22.52;12.60;;;;;;;3.92;57.90;100326.44;5031389;28;20032;-86
2022/03/06 00:05:03;;;;;;;23.55;12.98;;;;;;;3.91;57.91;100330.03;5031304;28;20028;-87
2022/03/06 00:07:29;;;;;;;23.70;12.75;;;;;;;3.91;58.09;100336.19;5023470;28;20074;-86
2022/03/06 00:09:54;;;;;;;23.40;13.45;;;;;;;3.91;58.13;100338.81;5031560;28;20038;-86
2022/03/06 00:12:19;;;;;;;23.15;13.00;;;;;;;3.88;58.48;100338.13;5029745;28;20115;-86
2022/03/06 00:14:45;;;;;;;22.52;12.38;;;;;;;3.89;58.48;100342.50;5031507;28;20046;-87
2022/03/06 00:17:10;;;;;;;23.20;13.45;;;;;;;3.87;58.74;100337.28;5030553;28;20031;-86
2022/03/06 00:19:35;;;;;;;28.80;15.57;;;;;;;3.85;58.57;100331.22;5031433;28;20503;-87
2022/03/06 00:22:01;;;;;;;27.25;15.23;;;;;;;3.81;58.45;100324.41;5048092;28;20060;-86
2022/03/06 00:24:26;;;;;;;25.20;13.65;;;;;;;3.78;58.04;100338.66;5030186;28;20478;-86
2022/03/06 00:26:52;;;;;;;29.15;16.10;;;;;;;3.76;58.59;100329.06;5029648;28;20032;-86
2022/03/06 00:29:17;;;;;;;27.73;15.68;;;;;;;3.79;58.64;100328.94;5030943;28;20021;-86
2022/03/06 00:31:42;;;;;;;29.73;16.85;;;;;;;3.77;59.11;100336.94;5030887;28;20033;-86
2022/03/06 00:34:08;;;;;;;29.92;16.48;;;;;;;3.64;59.45;100329.75;5031383;28;20055;-87
2022/03/06 00:36:33;;;;;;;22.38;13.30;;;;;;;3.57;59.66;100329.25;5031472;28;20067;-86
2022/03/06 00:38:58;;;;;;;20.20;12.55;;;;;;;3.63;60.06;100330.69;5030259;28;20028;-86
2022/03/06 00:41:24;;;;;;;21.27;12.07;;;;;;;3.57;60.64;100331.91;5029884;28;20036;-86
2022/03/06 00:43:49;;;;;;;22.23;13.05;;;;;;;3.47;60.74;100338.63;5030769;28;20111;-87
2022/03/06 00:46:15;;;;;;;21.10;11.90;;;;;;;3.56;60.57;100334.63;5030350;28;20050;-86
2022/03/06 00:48:40;;;;;;;21.15;12.55;;;;;;;3.51;60.72;100339.31;5046686;28;20040;-87
2022/03/06 00:51:06;;;;;;;21.02;13.23;;;;;;;3.62;60.75;100343.06;5030131;28;20060;-86
2022/03/06 00:53:31;;;;;;;23.25;13.25;;;;;;;3.57;60.87;100338.97;5030762;28;20059;-87
2022/03/06 00:55:56;;;;;;;20.65;12.15;;;;;;;3.57;61.50;100347.75;5030040;28;20513;-86
2022/03/06 00:58:22;;;;;;;22.02;12.40;;;;;;;3.58;60.81;100349.47;5030315;28;20045;-87
2022/03/06 01:00:48;;;;;;;19.27;12.27;;;;;;;3.62;60.40;100347.50;5030671;28;20021;-86
2022/03/06 01:03:16;;;;;;;22.23;12.52;;;;;;;3.63;60.56;100339.50;5029960;28;20078;-86
2022/03/06 01:05:42;;;;;;;19.83;12.55;;;;;;;3.58;60.30;100338.88;5030602;28;20033;-86
2022/03/06 01:08:08;;;;;;;19.30;12.75;;;;;;;3.61;60.37;100344.00;5033011;28;20040;-86
2022/03/06 01:10:35;;;;;;;19.63;11.65;;;;;;;3.69;59.83;100351.50;5050515;28;20044;-87
2022/03/06 01:13:01;;;;;;;20.38;12.65;;;;;;;3.71;59.73;100345.19;5034592;28;20034;-86
2022/03/06 01:15:26;;;;;;;20.55;12.18;;;;;;;3.67;59.39;100348.09;5033218;28;20436;-87
2022/03/06 01:17:52;;;;;;;17.42;11.75;;;;;;;3.63;59.64;100346.56;5033957;28;20939;-87
2022/03/06 01:20:20;;;;;;;18.95;11.60;;;;;;;3.56;59.58;100348.69;5032801;28;20039;-86
2022/03/06 01:22:47;;;;;;;18.85;11.63;;;;;;;3.56;59.70;100345.19;5034127;28;20067;-86
2022/03/06 01:25:12;;;;;;;22.20;11.82;;;;;;;3.57;59.53;100342.47;5033202;28;20040;-86
2022/03/06 01:27:38;;;;;;;27.33;14.27;;;;;;;3.57;59.48;100344.25;5050039;28;20113;-86
2022/03/06 01:30:05;;;;;;;22.50;13.65;;;;;;;3.52;59.51;100351.59;5033970;28;20068;-86
2022/03/06 01:32:32;;;;;;;20.55;12.70;;;;;;;3.54;59.68;100347.94;5033262;28;20043;-86
2022/03/06 01:34:57;;;;;;;20.90;12.90;;;;;;;3.50;59.22;100349.03;5033908;28;20039;-86
2022/03/06 01:37:22;;;;;;;18.80;11.80;;;;;;;3.51;59.37;100355.19;5033488;28;20032;-87
2022/03/06 01:39:48;;;;;;;17.42;11.65;;;;;;;3.48;59.39;100354.41;5032819;28;20021;-86
2022/03/06 01:42:13;;;;;;;17.83;11.55;;;;;;;3.46;59.83;100355.44;5033197;28;20039;-86
2022/03/06 01:44:38;;;;;;;17.52;11.18;;;;;;;3.48;59.82;100357.06;5032848;28;20115;-86
2022/03/06 01:47:04;;;;;;;18.63;11.85;;;;;;;3.46;59.66;100356.28;5033914;28;20040;-86
2022/03/06 01:49:30;;;;;;;23.92;12.90;;;;;;;3.46;60.16;100356.28;5033188;28;20074;-86
2022/03/06 01:51:55;;;;;;;20.40;12.88;;;;;;;3.42;60.07;100353.88;5033603;28;20096;-86
2022/03/06 01:54:21;;;;;;;20.58;12.88;;;;;;;3.41;60.21;100360.09;5031342;28;20405;-87
2022/03/06 01:56:46;;;;;;;19.63;12.18;;;;;;;3.43;60.06;100363.53;5049849;28;20111;-86
2022/03/06 01:59:11;;;;;;;20.98;12.90;;;;;;;3.40;60.15;100356.63;5033281;28;20049;-86
2022/03/06 02:01:39;;;;;;;21.10;13.77;;;;;;;3.35;60.10;100360.44;5050039;28;20036;-86
2022/03/06 02:04:04;;;;;;;22.15;13.27;;;;;;;3.32;59.96;100358.81;5031275;28;20437;-86
2022/03/06 02:06:30;;;;;;;20.40;13.05;;;;;;;3.32;60.24;100356.19;5033221;28;20032;-87
2022/03/06 02:08:55;;;;;;;24.13;14.10;;;;;;;3.27;59.55;100352.03;5033254;28;20124;-86
2022/03/06 02:11:22;;;;;;;20.65;12.75;;;;;;;3.32;60.34;100353.53;5032420;28;20028;-86
2022/03/06 02:13:48;;;;;;;23.35;13.80;;;;;;;3.35;60.25;100357.81;5033235;28;20036;-87
2022/03/06 02:16:13;;;;;;;23.42;13.50;;;;;;;3.37;60.22;100355.94;5032673;28;20535;-86
2022/03/06 02:18:39;;;;;;;22.38;13.18;;;;;;;3.31;60.42;100354.47;5032296;28;20389;-87
2022/03/06 02:21:12;;;;;;;25.15;14.70;;;;;;;3.28;59.92;100356.38;5032569;28;20032;-86
2022/03/06 02:23:38;;;;;;;25.63;15.40;;;;;;;3.29;60.43;100356.31;5032761;28;20490;-86
2022/03/06 02:26:05;;;;;;;24.33;14.43;;;;;;;3.29;60.17;100351.03;5023555;28;20032;-87
2022/03/06 02:28:30;;;;;;;23.10;14.10;;;;;;;3.31;60.42;100357.09;5048945;28;20037;-86
2022/03/06 02:30:55;;;;;;;24.77;15.32;;;;;;;3.31;60.39;100356.22;5049306;28;20497;-87
2022/03/06 02:33:21;;;;;;;24.90;14.88;;;;;;;3.29;60.49;100350.16;5032212;28;20493;-87
2022/03/06 02:35:47;;;;;;;26.35;16.08;;;;;;;3.27;60.81;100352.91;5031261;28;20111;-86
2022/03/06 02:38:12;;;;;;;27.15;16.83;;;;;;;3.25;60.35;100353.91;5032491;28;20028;-87
2022/03/06 02:40:41;;;;;;;25.98;15.65;;;;;;;3.19;60.07;100357.75;5024857;28;20060;-86
2022/03/06 02:43:08;;;;;;;26.55;15.82;;;;;;;3.15;60.50;100359.69;5033155;28;20029;-86
2022/03/06 02:45:34;;;;;;;25.35;15.45;;;;;;;3.15;60.07;100362.34;5032125;28;20043;-86
2022/03/06 02:47:59;;;;;;;26.20;16.15;;;;;;;3.06;60.66;100359.31;5032158;28;20052;-86
2022/03/06 02:50:31;;;;;;;23.30;15.75;;;;;;;3.15;60.93;100367.63;5031406;28;20115;-87
2022/03/06 02:52:58;;;;;;;26.15;16.15;;;;;;;3.17;60.74;100365.75;5032097;28;20089;-86
2022/03/06 02:55:24;;;;;;;25.25;15.15;;;;;;;3.12;60.04;100359.00;5032554;28;20039;-86
2022/03/06 02:57:50;;;;;;;23.95;14.10;;;;;;;3.07;60.45;100361.03;5032690;28;20437;-86
2022/03/06 03:00:18;;;;;;;23.20;14.32;;;;;;;3.13;60.61;100364.19;5031332;28;20020;-86
2022/03/06 03:02:45;;;;;;;26.65;16.33;;;;;;;3.15;60.91;100369.41;5031729;28;20029;-87
2022/03/06 03:05:11;;;;;;;24.20;15.77;;;;;;;3.09;60.91;100365.31;5032269;28;20028;-86
2022/03/06 03:07:40;;;;;;;24.23;15.10;;;;;;;3.11;61.27;100371.34;5032455;28;20029;-86
2022/03/06 03:10:25;;;;;;;23.70;15.02;;;;;;;3.07;60.86;100364.53;5039594;28;20044;-87
2022/03/06 03:12:52;;;;;;;24.38;14.60;;;;;;;2.93;61.52;100377.59;5032714;28;20107;-86
2022/03/06 03:15:18;;;;;;;21.80;13.65;;;;;;;2.91;61.49;100375.97;5041251;28;20028;-86
2022/03/06 03:17:44;;;;;;;20.17;12.82;;;;;;;2.95;61.65;100380.16;5032085;28;20422;-87
2022/03/06 03:20:11;;;;;;;21.42;13.52;;;;;;;2.97;61.62;100380.94;5047771;28;20025;-86
2022/03/06 03:22:36;;;;;;;20.90;12.60;;;;;;;2.97;61.64;100378.31;5031090;28;20924;-86
2022/03/06 03:25:03;;;;;;;19.88;13.05;;;;;;;2.95;61.25;100385.44;5031857;28;20111;-86
2022/03/06 03:27:28;;;;;;;20.25;12.40;;;;;;;2.94;61.25;100389.88;5031230;28;20494;-86
2022/03/06 03:29:54;;;;;;;20.77;12.75;;;;;;;2.94;62.43;100384.59;5029428;28;20036;-86
2022/03/06 03:32:19;;;;;;;19.13;12.23;;;;;;;2.93;62.33;100393.44;5031157;28;20028;-86
2022/03/06 03:34:44;;;;;;;18.00;11.77;;;;;;;2.94;62.17;100391.66;5030537;28;20043;-87
2022/03/06 03:37:10;;;;;;;17.20;11.07;;;;;;;2.95;62.24;100396.00;5030770;28;20028;-86
2022/03/06 03:39:35;;;;;;;18.85;11.60;;;;;;;2.94;61.86;100394.31;5030334;28;20077;-86
2022/03/06 03:42:00;;;;;;;19.70;11.70;;;;;;;2.94;61.97;100392.53;5031234;28;20420;-87
2022/03/06 03:44:26;;;;;;;18.70;11.55;;;;;;;2.94;61.95;100391.66;5030552;28;20193;-87
2022/03/06 03:46:51;;;;;;;17.40;10.90;;;;;;;2.89;61.73;100389.25;5030774;28;20029;-86
2022/03/06 03:49:16;;;;;;;19.10;11.52;;;;;;;2.87;61.86;100392.91;5030312;28;20044;-87
2022/03/06 03:51:42;;;;;;;17.80;10.52;;;;;;;2.90;61.88;100393.63;5030863;28;20052;-86
2022/03/06 03:54:08;;;;;;;17.75;11.05;;;;;;;2.92;61.88;100394.38;5030916;28;20059;-87
2022/03/06 03:56:33;;;;;;;19.58;11.35;;;;;;;2.88;61.81;100389.34;5030214;28;20098;-86
2022/03/06 03:58:59;;;;;;;19.35;11.20;;;;;;;2.87;61.13;100393.78;5029759;28;20048;-86
2022/03/06 04:01:24;;;;;;;16.13;10.32;;;;;;;2.80;61.49;100401.13;5047107;28;20024;-86
2022/03/06 04:03:49;;;;;;;18.90;11.18;;;;;;;2.78;61.27;100392.41;5048062;28;20034;-86
2022/03/06 04:06:15;;;;;;;18.00;10.75;;;;;;;2.78;61.77;100402.97;5030541;28;20032;-87
2022/03/06 04:08:40;;;;;;;16.92;11.23;;;;;;;2.77;61.42;100403.06;5030330;28;20067;-87
2022/03/06 04:11:06;;;;;;;18.13;10.70;;;;;;;2.75;61.60;100408.41;5031309;28;20032;-87
2022/03/06 04:13:31;;;;;;;16.50;10.75;;;;;;;2.73;61.97;100405.00;5030686;28;20178;-86
2022/03/06 04:15:57;;;;;;;17.02;10.68;;;;;;;2.79;61.96;100404.69;5031571;28;20085;-86
2022/03/06 04:18:22;;;;;;;15.50;9.65;;;;;;;2.82;61.18;100409.81;5030651;28;20033;-87
2022/03/06 04:20:48;;;;;;;15.30;9.65;;;;;;;2.87;61.55;100412.25;5031139;28;20029;-86
2022/03/06 04:23:13;;;;;;;15.73;9.90;;;;;;;2.87;61.20;100416.69;5031405;28;20101;-87
2022/03/06 04:25:39;;;;;;;14.85;9.82;;;;;;;2.87;61.29;100419.31;5030669;28;20044;-86
2022/03/06 04:28:04;;;;;;;14.95;10.23;;;;;;;2.81;61.07;100415.19;5031132;28;20041;-87
2022/03/06 04:30:30;;;;;;;14.77;9.98;;;;;;;2.77;61.58;100426.81;5023244;28;22095;-86
2022/03/06 04:32:56;;;;;;;14.50;9.50;;;;;;;2.78;61.81;100426.75;5064952;28;20032;-87
2022/03/06 04:35:21;;;;;;;15.43;9.90;;;;;;;2.81;61.35;100423.94;5047205;28;20028;-86
2022/03/06 04:37:47;;;;;;;14.65;10.02;;;;;;;2.84;61.41;100430.91;5031326;28;20044;-86
2022/03/06 04:40:13;;;;;;;16.88;10.18;;;;;;;2.81;62.16;100434.50;5048246;28;20192;-86
2022/03/06 04:42:38;;;;;;;16.00;9.93;;;;;;;2.75;62.02;100434.81;5035036;28;20031;-86
2022/03/06 04:45:04;;;;;;;16.02;10.23;;;;;;;2.74;62.04;100432.25;5034247;28;20036;-86
2022/03/06 04:47:30;;;;;;;15.20;10.18;;;;;;;2.76;61.77;100428.63;5033485;28;20036;-86
2022/03/06 04:49:55;;;;;;;15.48;10.10;;;;;;;2.74;61.97;100430.47;5034012;28;20044;-86
2022/03/06 04:52:20;;;;;;;13.85;9.30;;;;;;;2.76;62.27;100433.91;5034794;28;20424;-86
2022/03/06 04:54:46;;;;;;;14.52;9.48;;;;;;;2.74;61.87;100427.84;5034579;28;20055;-86
2022/03/06 04:57:11;;;;;;;16.30;10.13;;;;;;;2.73;61.92;100427.91;5034037;28;20043;-86
2022/03/06 04:59:36;;;;;;;16.00;9.90;;;;;;;2.72;62.20;100429.69;5033842;28;20121;-86
2022/03/06 05:02:02;;;;;;;15.60;10.35;;;;;;;2.74;62.73;100437.53;5049613;28;20043;-87
2022/03/06 05:04:28;;;;;;;15.32;10.40;;;;;;;2.66;62.93;100443.22;5033789;28;20505;-87
2022/03/06 05:06:53;;;;;;;14.75;10.35;;;;;;;2.61;63.41;100439.94;5033785;28;20040;-86
2022/03/06 05:09:19;;;;;;;15.35;10.25;;;;;;;2.70;63.70;100441.28;5033916;28;20039;-86
2022/03/06 05:11:44;;;;;;;16.17;10.23;;;;;;;2.69;63.26;100442.19;5034602;28;20116;-86
2022/03/06 05:14:10;;;;;;;13.90;10.00;;;;;;;2.65;63.18;100435.38;5051419;28;20134;-87
2022/03/06 05:16:35;;;;;;;13.55;9.75;;;;;;;2.65;62.76;100440.66;5032716;28;20426;-86
2022/03/06 05:19:00;;;;;;;15.30;9.75;;;;;;;2.62;63.49;100441.66;5033587;28;20481;-87
2022/03/06 05:21:26;;;;;;;18.88;10.85;;;;;;;2.64;63.19;100444.22;5033377;28;20547;-86
2022/03/06 05:23:51;;;;;;;16.45;9.93;;;;;;;2.61;63.11;100445.22;5033888;28;20047;-87
2022/03/06 05:26:17;;;;;;;15.32;9.93;;;;;;;2.61;62.93;100439.09;5032982;28;20032;-86
2022/03/06 05:28:42;;;;;;;15.98;10.02;;;;;;;2.54;63.21;100438.53;5033118;28;20028;-87
2022/03/06 05:31:08;;;;;;;17.45;9.45;;;;;;;2.59;63.23;100438.31;5032743;28;20031;-86
2022/03/06 05:33:34;;;;;;;20.27;10.57;;;;;;;2.52;63.68;100443.03;5033992;28;20047;-87
2022/03/06 05:35:59;;;;;;;15.95;9.77;;;;;;;2.52;63.62;100440.41;5033125;28;20049;-86
2022/03/06 05:38:25;;;;;;;17.80;10.60;;;;;;;2.41;63.92;100442.72;5032607;28;20028;-86
2022/03/06 05:40:50;;;;;;;15.90;10.57;;;;;;;2.48;64.12;100437.06;5049463;28;20024;-86
2022/03/06 05:43:15;;;;;;;16.63;9.60;;;;;;;2.39;64.22;100441.94;5033227;28;20020;-87
2022/03/06 05:45:41;;;;;;;18.58;10.73;;;;;;;2.33;64.17;100444.84;5032835;28;20025;-86
2022/03/06 05:48:06;;;;;;;16.35;10.02;;;;;;;2.16;64.43;100450.94;5032448;28;20205;-86
2022/03/06 05:50:31;;;;;;;17.15;9.77;;;;;;;2.18;64.59;100449.94;5049468;28;20056;-87
2022/03/06 05:52:57;;;;;;;16.08;9.30;;;;;;;2.22;65.00;100461.19;5032357;28;20405;-86
2022/03/06 05:55:22;;;;;;;15.18;9.25;;;;;;;2.18;64.91;100464.91;5032974;28;20028;-87
2022/03/06 05:57:47;;;;;;;17.25;9.63;;;;;;;2.11;64.83;100476.66;5032927;28;20518;-86
2022/03/06 06:00:16;;;;;;;16.48;10.13;;;;;;;1.99;65.55;100478.09;5048978;28;20028;-86
2022/03/06 06:02:41;;;;;;;15.32;10.15;;;;;;;2.14;65.07;100484.44;5059096;28;20039;-86
2022/03/06 06:05:08;;;;;;;16.35;10.07;;;;;;;2.26;64.58;100483.00;5033117;28;20382;-87
2022/03/06 06:07:35;;;;;;;15.60;10.25;;;;;;;2.34;64.18;100484.34;5032267;28;21341;-86
2022/03/06 06:10:02;;;;;;;15.50;9.65;;;;;;;2.40;64.04;100484.09;5032825;28;20040;-87
2022/03/06 06:12:27;;;;;;;16.63;10.23;;;;;;;2.48;64.25;100491.63;5032828;28;20086;-86
2022/03/06 06:14:53;;;;;;;17.38;9.90;;;;;;;2.54;63.59;100488.69;5032734;28;20654;-86
2022/03/06 06:17:18;;;;;;;15.70;9.32;;;;;;;2.54;63.89;100488.69;5031715;28;20032;-87
2022/03/06 06:19:44;;;;;;;16.10;10.02;;;;;;;2.55;63.68;100494.81;5032774;28;20497;-86
2022/03/06 06:22:09;;;;;;;14.23;10.00;;;;;;;2.52;63.67;100491.41;5032817;28;20032;-87
2022/03/06 06:24:34;;;;;;;16.05;10.30;;;;;;;2.57;63.77;100496.47;5031906;28;20029;-86
2022/03/06 06:27:00;;;;;;;16.38;9.93;;;;;;;2.54;63.96;100499.25;5024240;28;20036;-86
2022/03/06 06:29:26;;;;;;;16.38;10.68;;;;;;;2.40;64.42;100510.47;5032118;28;20031;-86
2022/03/06 06:31:52;;;;;;;15.75;9.75;;;;;;;2.31;65.14;100518.78;5031382;28;20024;-87
2022/03/06 06:34:18;;;;;;;15.57;9.55;;;;;;;2.33;65.34;100510.81;5032794;28;20405;-86
2022/03/06 06:36:43;;;;;;;15.57;9.48;;;;;;;2.44;64.98;100514.69;5031164;28;20036;-87
2022/03/06 06:39:12;;;;;;;15.32;9.88;;;;;;;2.49;65.09;100506.53;5032563;28;20051;-87
2022/03/06 06:41:38;;;;;;;15.88;10.38;;;;;;;2.50;64.65;100510.88;5048743;28;20024;-86
2022/03/06 06:44:04;;;;;;;14.15;9.95;;;;;;;2.43;64.77;100515.59;5032658;28;20024;-87
2022/03/06 06:46:29;;;;;;;16.63;9.70;;;;;;;2.45;65.21;100520.81;5030377;28;20043;-86
2022/03/06 06:48:55;;;;;;;15.48;9.98;;;;;;;2.29;65.42;100522.44;5032428;28;20040;-87
2022/03/06 06:51:20;;;;;;;16.55;10.63;;;;;;;2.39;65.13;100526.38;5031313;28;20064;-86
2022/03/06 06:53:45;;;;;;;15.23;9.73;;;;;;;2.47;65.48;100518.94;5049171;28;20071;-86
2022/03/06 06:56:11;;;;;;;18.10;10.50;;;;;;;2.51;64.88;100520.50;5031145;28;20410;-86
2022/03/06 06:58:36;;;;;;;20.00;12.93;;;;;;;2.48;64.69;100523.28;5047909;28;20095;-86
2022/03/06 07:01:01;;;;;;;16.17;10.00;;;;;;;2.48;65.07;100526.78;5031730;28;20048;-86
2022/03/06 07:03:27;;;;;;;16.42;10.00;;;;;;;2.48;64.74;100529.44;5031538;28;20079;-87
2022/03/06 07:05:52;;;;;;;15.27;9.98;;;;;;;2.49;64.52;100543.47;5031626;28;20063;-86
2022/03/06 07:08:17;;;;;;;15.45;9.77;;;;;;;2.39;65.01;100545.72;5031330;28;20032;-86
2022/03/06 07:10:43;;;;;;;16.02;10.15;;;;;;;2.33;65.65;100553.03;5030422;28;20505;-86
2022/03/06 07:13:13;;;;;;;15.55;10.52;;;;;;;2.30;66.00;100551.38;5049081;28;20058;-88
2022/03/06 07:15:39;;;;;;;17.65;10.30;;;;;;;2.38;65.89;100551.91;5030349;28;20489;-87
2022/03/06 07:18:04;;;;;;;18.05;10.27;;;;;;;2.36;66.08;100558.16;5032394;28;20043;-87
2022/03/06 07:20:30;;;;;;;17.80;10.18;;;;;;;2.21;66.04;100563.22;5031267;28;20021;-86
2022/03/06 07:22:55;;;;;;;15.05;10.27;;;;;;;2.21;67.16;100562.38;5031530;28;20382;-86
2022/03/06 07:25:21;;;;;;;17.20;10.23;;;;;;;2.34;66.61;100563.50;5031095;28;20094;-87
2022/03/06 07:27:47;;;;;;;17.80;10.50;;;;;;;2.41;66.19;100564.09;5031316;28;20024;-87
2022/03/06 07:30:13;;;;;;;20.48;11.05;;;;;;;2.44;65.84;100572.72;5046084;28;20029;-86
2022/03/06 07:32:48;;;;;;;18.20;10.65;;;;;;;2.51;66.03;100573.31;5045724;28;20514;-86
2022/03/06 07:35:15;;;;;;;18.08;10.43;;;;;;;2.52;66.03;100577.66;5029420;28;20032;-86
2022/03/06 07:37:40;;;;;;;15.23;9.75;;;;;;;2.49;66.30;100577.78;5029302;28;20058;-86
2022/03/06 07:40:07;;;;;;;19.45;11.43;;;;;;;2.50;65.93;100588.28;5023035;28;20024;-86
2022/03/06 07:42:33;;;;;;;17.25;11.10;;;;;;;2.53;66.70;100582.84;5030171;28;20032;-86
2022/03/06 07:44:58;;;;;;;14.32;9.57;;;;;;;2.44;66.95;100590.34;5029503;28;20051;-86
2022/03/06 07:47:23;;;;;;;17.17;10.48;;;;;;;2.48;67.83;100586.63;5030098;28;20035;-85
2022/03/06 07:49:49;;;;;;;14.93;10.55;;;;;;;2.56;67.33;100591.56;5029815;28;20102;-86
2022/03/06 07:52:14;;;;;;;16.00;10.32;;;;;;;2.55;67.64;100601.25;5029266;28;20036;-86
2022/03/06 07:54:40;;;;;;;16.20;10.90;;;;;;;2.58;67.73;100597.63;5037686;28;20036;-86
2022/03/06 07:57:05;;;;;;;14.50;10.20;;;;;;;2.57;67.65;100599.41;5028695;28;20084;-86
2022/03/06 07:59:30;;;;;;;17.25;11.32;;;;;;;2.65;67.83;100597.25;5028169;28;20056;-87
2022/03/06 08:01:56;;;;;;;17.88;11.52;;;;;;;2.76;67.43;100592.31;5028351;28;20036;-86
2022/03/06 08:04:21;;;;;;;18.48;11.63;;;;;;;2.78;66.70;100598.38;5028358;28;20029;-86
2022/03/06 08:06:47;;;;;;;21.95;12.63;;;;;;;2.68;66.84;100590.97;5026013;28;20038;-86
2022/03/06 08:09:13;;;;;;;17.55;11.18;;;;;;;2.61;66.76;100600.13;5026076;28;20100;-86
2022/03/06 08:11:38;;;;;;;22.08;11.73;;;;;;;2.60;67.03;100595.78;5027643;28;20474;-86
2022/03/06 08:14:04;;;;;;;17.65;10.75;;;;;;;2.61;67.82;100598.34;5027886;28;20112;-86
2022/03/06 08:16:29;;;;;;;17.23;11.50;;;;;;;2.69;68.05;100592.69;5034779;28;20123;-86
2022/03/06 08:18:54;;;;;;;20.13;11.60;;;;;;;2.77;68.02;100593.19;5051781;28;20064;-86
2022/03/06 08:21:19;;;;;;;17.38;11.52;;;;;;;2.77;68.25;100601.97;5036161;28;20044;-86
2022/03/06 08:23:45;;;;;;;17.55;11.77;;;;;;;2.67;68.08;100598.03;5036655;28;20051;-86
2022/03/06 08:26:10;;;;;;;18.60;11.65;;;;;;;2.65;68.29;100599.91;5029804;28;20036;-86
2022/03/06 08:28:35;;;;;;;19.02;11.10;;;;;;;2.71;68.28;100594.31;5036267;28;20031;-86
2022/03/06 08:31:01;;;;;;;17.13;10.68;;;;;;;2.75;67.93;100603.81;5029062;28;20029;-86
2022/03/06 08:33:26;;;;;;;18.02;11.45;;;;;;;2.77;68.00;100611.66;5036244;28;20109;-85
2022/03/06 08:35:52;;;;;;;17.67;11.40;;;;;;;2.79;68.36;100608.03;5036942;28;21035;-86
2022/03/06 08:38:18;;;;;;;17.63;11.02;;;;;;;2.82;68.30;100605.22;5035793;28;20046;-86
2022/03/06 08:40:43;;;;;;;15.38;10.32;;;;;;;2.93;67.73;100611.81;5035489;28;20143;-86
2022/03/06 08:43:09;;;;;;;16.70;10.75;;;;;;;3.01;67.95;100617.59;5036238;28;20115;-86
2022/03/06 08:45:36;;;;;;;18.70;11.25;;;;;;;3.04;66.50;100617.44;5035439;28;20037;-86
2022/03/06 08:48:02;;;;;;;17.85;10.82;;;;;;;3.08;65.38;100609.28;5031671;28;20147;-86
2022/03/06 08:50:28;;;;;;;16.90;10.48;;;;;;;3.06;63.39;100620.84;5034775;28;20549;-86
2022/03/06 08:52:53;;;;;;;17.75;11.20;;;;;;;3.03;62.63;100619.22;5033692;28;20187;-86
2022/03/06 08:55:18;;;;;;;18.55;11.27;;;;;;;3.07;63.07;100625.22;5034859;28;20072;-86
2022/03/06 08:57:44;;;;;;;19.02;11.45;;;;;;;3.09;64.38;100626.00;5030396;28;20048;-87
2022/03/06 09:00:09;;;;;;;20.33;12.07;;;;;;;3.12;65.90;100626.69;5030915;28;20037;-86
2022/03/06 09:02:35;;;;;;;20.58;12.45;;;;;;;3.08;66.72;100630.44;5032103;28;20517;-86
2022/03/06 09:05:00;;;;;;;23.98;13.52;;;;;;;3.09;66.77;100618.94;5034913;28;20119;-86
2022/03/06 09:07:27;;;;;;;24.35;12.88;;;;;;;3.15;67.29;100620.41;5028336;28;20032;-86
2022/03/06 09:09:54;;;;;;;22.65;12.98;;;;;;;3.12;67.77;100631.13;5050194;28;20139;-86
2022/03/06 09:12:19;;;;;;;23.33;13.90;;;;;;;3.20;67.42;100626.31;5033910;28;20111;-87
2022/03/06 09:14:45;;;;;;;21.00;12.75;;;;;;;3.30;67.80;100624.94;5052945;28;20067;-86
2022/03/06 09:17:10;;;;;;;20.25;12.48;;;;;;;3.42;67.32;100628.78;5035188;28;20514;-86
2022/03/06 09:19:36;;;;;;;19.55;12.40;;;;;;;3.49;66.79;100627.56;5035679;28;20059;-86
2022/03/06 09:22:01;;;;;;;18.92;12.75;;;;;;;3.43;66.23;100622.56;5028789;28;20089;-86
2022/03/06 09:24:26;;;;;;;21.63;12.88;;;;;;;3.53;66.09;100628.25;5036338;28;20059;-86
2022/03/06 09:26:52;;;;;;;20.52;12.18;;;;;;;3.50;65.54;100636.34;5048977;28;20028;-86
2022/03/06 09:29:17;;;;;;;20.48;12.07;;;;;;;3.50;64.95;100628.41;5033471;28;20497;-85
2022/03/06 09:31:43;;;;;;;19.20;12.35;;;;;;;3.50;65.35;100633.69;5025158;28;20040;-86
2022/03/06 09:34:09;;;;;;;22.40;13.02;;;;;;;3.46;64.85;100622.41;5032557;28;20039;-86
2022/03/06 09:36:35;;;;;;;19.88;12.30;;;;;;;3.50;64.44;100629.25;5032535;28;20111;-86
2022/03/06 09:39:00;;;;;;;19.58;12.88;;;;;;;3.50;64.55;100631.91;5033310;28;20029;-85
2022/03/06 09:41:27;;;;;;;22.27;13.27;;;;;;;3.51;64.54;100635.41;5042140;28;20021;-86
2022/03/06 09:43:56;;;;;;;23.85;13.55;;;;;;;3.56;64.68;100628.09;5048881;28;20037;-86
2022/03/06 09:46:22;;;;;;;20.65;13.68;;;;;;;3.56;64.69;100636.03;5032720;28;20398;-86
2022/03/06 09:48:49;;;;;;;20.83;13.38;;;;;;;3.67;64.77;100633.69;5031116;28;20036;-86
2022/03/06 09:51:14;;;;;;;21.02;13.75;;;;;;;3.68;64.87;100630.13;5032082;28;20039;-86
2022/03/06 09:53:39;;;;;;;19.17;13.30;;;;;;;3.72;64.42;100639.59;5049471;28;20028;-86
2022/03/06 09:56:05;;;;;;;20.33;12.93;;;;;;;3.73;64.32;100636.88;5032412;28;20442;-87
2022/03/06 09:58:30;;;;;;;20.75;12.73;;;;;;;3.71;63.54;100637.91;5032701;28;20040;-86
2022/03/06 10:00:57;;;;;;;18.50;12.80;;;;;;;3.76;63.70;100638.50;5031219;28;20033;-87
2022/03/06 10:03:23;;;;;;;20.20;13.15;;;;;;;3.69;63.22;100634.47;5032233;28;20492;-85
2022/03/06 10:05:48;;;;;;;21.67;12.75;;;;;;;3.72;62.95;100636.97;5049119;28;20115;-86
2022/03/06 10:08:29;;;;;;;18.02;12.45;;;;;;;3.72;62.02;100629.03;5031708;28;20124;-86
2022/03/06 10:11:00;;;;;;;24.27;13.00;;;;;;;3.74;61.93;100635.09;5047694;28;20028;-86
2022/03/06 10:13:39;;;;;;;19.15;12.75;;;;;;;3.75;61.99;100629.72;5047814;28;20115;-86
2022/03/06 10:16:07;;;;;;;20.00;12.93;;;;;;;3.78;61.97;100626.97;5048375;28;20485;-86
2022/03/06 10:18:47;;;;;;;18.33;12.45;;;;;;;3.76;61.26;100622.66;5048266;28;20055;-84
2022/03/06 10:21:25;;;;;;;22.65;12.18;;;;;;;3.85;61.74;100626.63;5041677;28;20036;-86
2022/03/06 10:23:55;;;;;;;18.27;12.00;;;;;;;3.85;61.69;100621.34;5040938;28;20029;-86
2022/03/06 10:26:22;;;;;;;20.58;12.52;;;;;;;3.93;61.18;100635.03;5048002;28;20440;-86
2022/03/06 10:28:50;;;;;;;20.58;12.82;;;;;;;3.91;61.15;100629.81;5030410;28;20032;-86
2022/03/06 10:31:17;;;;;;;19.80;12.18;;;;;;;3.92;61.07;100628.88;5031784;28;20056;-86
2022/03/06 10:33:54;;;;;;;22.08;12.27;;;;;;;3.93;60.61;100637.69;5032236;28;20081;-86
2022/03/06 10:36:32;;;;;;;19.33;12.48;;;;;;;3.95;61.15;100639.31;5031986;28;20111;-85
2022/03/06 10:38:57;;;;;;;18.42;11.88;;;;;;;3.95;60.76;100631.38;5024132;28;20043;-86
2022/03/06 10:41:33;;;;;;;20.00;12.02;;;;;;;3.97;61.25;100640.09;5031033;28;20032;-86
2022/03/06 10:43:58;;;;;;;18.20;12.30;;;;;;;4.13;61.03;100639.28;5031094;28;20047;-86
2022/03/06 10:46:23;;;;;;;19.42;12.68;;;;;;;4.22;61.22;100634.34;5031228;28;20115;-86
2022/03/06 10:48:57;;;;;;;20.48;11.95;;;;;;;4.15;61.18;100635.63;5030888;28;20051;-86
2022/03/06 10:51:23;;;;;;;17.67;11.90;;;;;;;4.18;61.66;100627.50;5048009;28;20044;-86
2022/03/06 10:53:57;;;;;;;23.20;13.20;;;;;;;4.16;60.83;100633.81;5041100;28;20070;-86
2022/03/06 10:56:23;;;;;;;17.65;11.68;;;;;;;4.10;60.66;100643.81;5031704;28;20036;-86
2022/03/06 10:58:49;;;;;;;19.00;11.93;;;;;;;4.06;59.83;100630.81;5027818;28;20596;-86
2022/03/06 11:01:15;;;;;;;17.80;12.30;;;;;;;4.15;60.45;100640.06;5011840;28;20192;-87
2022/03/06 11:03:41;;;;;;;20.27;11.93;;;;;;;4.22;60.01;100631.72;5011474;28;20025;-87
2022/03/06 11:06:09;;;;;;;18.40;11.90;;;;;;;4.38;60.92;100635.28;5011863;28;20032;-88
2022/03/06 11:08:35;;;;;;;20.38;13.55;;;;;;;4.36;60.53;100631.84;5009999;28;20064;-87
2022/03/06 11:11:04;;;;;;;18.63;11.52;;;;;;;4.25;58.57;100631.53;5010370;28;20116;-87
2022/03/06 11:13:30;;;;;;;19.83;13.57;;;;;;;4.23;59.18;100630.78;5027964;28;20029;-88